Time;durP1;ratioP1;P1;durP2;ratioP2;P2;SDS_P1;SDS_P2;PMS_P1;PMS_P2;Temp;Humidity;BMP_temperature;BMP_pressure;BME280_temperature;BME280_humidity;BME280_pressure;Samples;Min_cycle;Max_cycle;Signal;HPM_P1;HPM_P2
2023/03/30 00:00:20;;;;;;;;;;;;;;;16.09;60.09;100488.88;2116384;27;19966;-56
2023/03/30 00:01:22;;;;;;;;;;;;;;;16.10;59.99;100500.53;2111421;28;19931;-60
2023/03/30 00:02:24;;;;;;;;;;;;;;;16.09;59.87;100494.31;2105116;28;19931;-57
2023/03/30 00:03:27;;;;;;;;;;;;;;;16.09;59.79;100488.88;2119558;27;19934;-56
2023/03/30 00:04:33;;;;;;;;;;;;;;;16.09;59.96;100483.41;2113057;27;19938;-57
2023/03/30 00:05:37;;;;;;;;;;;;;;;16.10;59.92;100486.94;2108087;28;19928;-57
2023/03/30 00:06:41;;;;;;;;;;;;;;;16.09;59.78;100488.88;2117569;27;19929;-57
2023/03/30 00:07:44;;;;;;;;;;;;;;;16.10;60.06;100485.00;2111111;27;19924;-57
2023/03/30 00:08:46;;;;;;;;;;;;;;;16.10;59.73;100484.19;2112625;27;19951;-56
2023/03/30 00:09:53;;;;;;;;;;;;;;;16.10;59.81;100482.28;2110422;28;19923;-56
2023/03/30 00:10:59;;;;;;;;;;;;;;;16.10;59.64;100478.75;2114861;27;19928;-57
2023/03/30 00:12:02;;;;;;;;;;;;;;;16.10;60.00;100476.81;2119955;27;20017;-57
2023/03/30 00:13:04;;;;;;;;;;;;;;;16.10;59.76;100476.81;2110650;28;19931;-57
2023/03/30 00:14:07;;;;;;;;;;;;;;;16.11;59.87;100483.06;2105409;28;19928;-64
2023/03/30 00:15:09;;;;;;;;;;;;;;;16.10;59.71;100485.00;2112755;27;19932;-57
2023/03/30 00:16:13;;;;;;;;;;;;;;;16.10;60.15;100479.53;2114373;27;19996;-57
2023/03/30 00:17:15;;;;;;;;;;;;;;;16.09;59.95;100483.41;2113189;28;20442;-56
2023/03/30 00:18:17;;;;;;;;;;;;;;;16.09;60.00;100472.53;2113688;28;19927;-56
2023/03/30 00:19:19;;;;;;;;;;;;;;;16.10;59.80;100479.53;2117649;27;19978;-57
2023/03/30 00:20:22;;;;;;;;;;;;;;;16.10;59.92;100474.09;2116120;27;19963;-57
2023/03/30 00:21:23;;;;;;;;;;;;;;;16.10;59.94;100471.38;2107939;28;19986;-56
2023/03/30 00:22:26;;;;;;;;;;;;;;;16.11;59.72;100475.66;2115287;27;19935;-57
2023/03/30 00:23:28;;;;;;;;;;;;;;;16.10;59.88;100476.81;2106207;28;19928;-57
2023/03/30 00:24:30;;;;;;;;;;;;;;;16.09;59.89;100472.53;2107963;28;19939;-57
2023/03/30 00:25:33;;;;;;;;;;;;;;;16.10;59.70;100468.66;2111772;27;19973;-57
2023/03/30 00:26:36;;;;;;;;;;;;;;;16.10;59.83;100460.47;2118690;27;19935;-57
2023/03/30 00:27:38;;;;;;;;;;;;;;;16.11;59.83;100458.53;2111123;28;20402;-57
2023/03/30 00:28:41;;;;;;;;;;;;;;;16.11;59.76;100464.00;2106292;28;19936;-57
2023/03/30 00:29:42;;;;;;;;;;;;;;;16.10;59.69;100457.75;2115257;27;20033;-56
2023/03/30 00:30:46;;;;;;;;;;;;;;;16.11;59.75;100464.00;2110666;28;19927;-57
2023/03/30 00:31:48;;;;;;;;;;;;;;;16.10;59.76;100460.47;2112517;28;20014;-57
2023/03/30 00:32:50;;;;;;;;;;;;;;;16.10;59.90;100457.75;2107358;28;19928;-57
2023/03/30 00:33:53;;;;;;;;;;;;;;;16.10;59.79;100452.31;2109553;28;19938;-55
2023/03/30 00:34:55;;;;;;;;;;;;;;;16.10;59.84;100465.94;2111922;28;19927;-55
2023/03/30 00:35:58;;;;;;;;;;;;;;;16.11;59.81;100455.81;2112987;27;19980;-57
2023/03/30 00:37:01;;;;;;;;;;;;;;;16.10;59.68;100456.97;2112129;28;19939;-56
2023/03/30 00:38:04;;;;;;;;;;;;;;;16.12;59.87;100462.81;2113624;28;19972;-55
2023/03/30 00:39:07;;;;;;;;;;;;;;;16.10;59.66;100455.03;2106268;28;20316;-57
2023/03/30 00:40:14;;;;;;;;;;;;;;;16.10;59.89;100452.31;2111732;28;19928;-56
2023/03/30 00:41:17;;;;;;;;;;;;;;;16.11;59.73;100448.41;2112921;28;19928;-55
2023/03/30 00:42:20;;;;;;;;;;;;;;;16.10;59.86;100452.31;2112665;28;19931;-57
2023/03/30 00:43:23;;;;;;;;;;;;;;;16.11;59.48;100442.97;2111987;28;19928;-56
2023/03/30 00:44:44;;;;;;;;;;;;;;;16.11;59.82;100442.97;2111907;27;20343;-57
2023/03/30 00:45:46;;;;;;;;;;;;;;;16.11;59.84;100442.97;2106197;27;20406;-56
2023/03/30 00:46:49;;;;;;;;;;;;;;;16.11;59.78;100445.69;2115146;27;19977;-57
2023/03/30 00:47:55;;;;;;;;;;;;;;;16.11;59.76;100445.69;2113393;27;19939;-57
2023/03/30 00:49:02;;;;;;;;;;;;;;;16.11;59.63;100444.94;2113179;28;19928;-57
2023/03/30 00:50:06;;;;;;;;;;;;;;;16.10;59.57;100435.97;2113062;28;19965;-56
2023/03/30 00:51:11;;;;;;;;;;;;;;;16.11;59.59;100432.06;2112840;28;19931;-57
2023/03/30 00:52:18;;;;;;;;;;;;;;;16.11;59.59;100434.78;2112632;28;19949;-57
2023/03/30 00:53:22;;;;;;;;;;;;;;;16.11;59.58;100431.31;2098748;28;19925;-56
2023/03/30 00:54:23;;;;;;;;;;;;;;;16.11;59.57;100428.59;2097123;28;19932;-56
2023/03/30 00:55:29;;;;;;;;;;;;;;;16.11;59.73;100432.06;2104804;28;20299;-55
2023/03/30 00:56:33;;;;;;;;;;;;;;;16.11;59.83;100429.34;2110931;28;19932;-56
2023/03/30 00:57:37;;;;;;;;;;;;;;;16.11;59.73;100425.88;2105858;28;20395;-55
2023/03/30 00:58:41;;;;;;;;;;;;;;;16.10;59.53;100419.63;2100971;28;19931;-57
2023/03/30 00:59:43;;;;;;;;;;;;;;;16.10;59.77;100422.34;2104911;28;19939;-54
2023/03/30 01:00:46;;;;;;;;;;;;;;;16.12;59.34;100435.59;2095127;28;20527;-57
2023/03/30 01:01:49;;;;;;;;;;;;;;;16.11;59.67;100421.19;2099727;28;19939;-57
2023/03/30 01:02:56;;;;;;;;;;;;;;;16.11;59.75;100426.63;2116849;28;19986;-56
2023/03/30 01:03:59;;;;;;;;;;;;;;;16.11;59.62;100421.19;2115758;28;19935;-55
2023/03/30 01:05:02;;;;;;;;;;;;;;;16.11;59.83;100421.19;2118015;27;19931;-56
2023/03/30 01:06:06;;;;;;;;;;;;;;;16.11;59.80;100421.19;2112126;28;19928;-55
2023/03/30 01:07:11;;;;;;;;;;;;;;;16.11;59.73;100421.19;2095298;28;19925;-56
2023/03/30 01:08:15;;;;;;;;;;;;;;;16.11;59.56;100421.19;2096557;28;20475;-57
2023/03/30 01:09:18;;;;;;;;;;;;;;;16.11;59.67;100426.63;2113084;28;19949;-56
2023/03/30 01:10:20;;;;;;;;;;;;;;;16.10;59.57;100416.91;2107946;28;20354;-56
2023/03/30 01:11:23;;;;;;;;;;;;;;;16.11;59.59;100420.41;2103422;28;19924;-58
2023/03/30 01:12:27;;;;;;;;;;;;;;;16.12;59.54;100419.25;2112622;28;19928;-56
2023/03/30 01:13:31;;;;;;;;;;;;;;;16.11;59.62;100418.44;2103205;28;20246;-57
2023/03/30 01:14:32;;;;;;;;;;;;;;;16.12;59.46;100425.47;2100801;28;19977;-56
2023/03/30 01:15:39;;;;;;;;;;;;;;;16.12;59.50;100411.06;2106881;28;20423;-56
2023/03/30 01:16:43;;;;;;;;;;;;;;;16.12;59.66;100408.34;2112299;28;19932;-56
2023/03/30 01:18:01;;;;;;;;;;;;;;;16.11;59.69;100404.84;2120212;28;20379;-56
2023/03/30 01:19:15;;;;;;;;;;;;;;;16.12;59.47;100402.91;2105192;28;20458;-55
2023/03/30 01:20:35;;;;;;;;;;;;;;;16.11;59.65;100404.84;2113961;28;20020;-57
2023/03/30 01:21:57;;;;;;;;;;;;;;;16.12;59.60;100395.53;2088602;28;19924;-57
2023/03/30 01:23:07;;;;;;;;;;;;;;;16.12;59.58;100402.91;2104654;28;19928;-58
2023/03/30 01:24:22;;;;;;;;;;;;;;;16.11;59.59;100391.22;2112347;28;19927;-57
2023/03/30 01:25:45;;;;;;;;;;;;;;;16.12;59.43;100390.06;2113610;28;19928;-57
2023/03/30 01:26:48;;;;;;;;;;;;;;;16.11;59.45;100385.78;2114528;28;19923;-57
2023/03/30 01:28:15;;;;;;;;;;;;;;;16.11;59.64;100385.78;2114495;28;20410;-56
2023/03/30 01:29:26;;;;;;;;;;;;;;;16.12;59.77;100379.19;2092037;28;19927;-56
2023/03/30 01:30:39;;;;;;;;;;;;;;;16.11;59.67;100377.59;2107033;28;20387;-56
2023/03/30 01:31:59;;;;;;;;;;;;;;;16.12;59.62;100379.19;2112949;28;20454;-62
2023/03/30 01:33:21;;;;;;;;;;;;;;;16.12;59.63;100368.28;2072554;28;19938;-57
2023/03/30 01:34:50;;;;;;;;;;;;;;;16.12;59.64;100362.03;2115023;28;19927;-57
2023/03/30 01:36:11;;;;;;;;;;;;;;;16.12;59.44;100351.94;2110925;28;19924;-55
2023/03/30 01:37:19;;;;;;;;;;;;;;;16.12;59.38;100351.16;2111593;28;19924;-57
2023/03/30 01:38:40;;;;;;;;;;;;;;;16.12;59.46;100351.16;2117177;28;19928;-57
2023/03/30 01:39:48;;;;;;;;;;;;;;;16.12;59.44;100345.72;2117331;28;20402;-57
2023/03/30 01:40:53;;;;;;;;;;;;;;;16.12;59.60;100349.22;2116306;28;20375;-55
2023/03/30 01:41:58;;;;;;;;;;;;;;;16.12;59.42;100341.03;2117702;28;19968;-55
2023/03/30 01:43:03;;;;;;;;;;;;;;;16.12;59.50;100346.50;2115140;28;20398;-57
2023/03/30 01:44:10;;;;;;;;;;;;;;;16.11;59.48;100334.03;2107979;28;19927;-57
2023/03/30 01:45:21;;;;;;;;;;;;;;;16.12;59.15;100343.78;2109399;28;20410;-55
2023/03/30 01:46:29;;;;;;;;;;;;;;;16.12;59.65;100335.59;2116033;28;19928;-57
2023/03/30 01:47:36;;;;;;;;;;;;;;;16.12;59.61;100329.38;2115635;28;19927;-56
2023/03/30 01:48:44;;;;;;;;;;;;;;;16.12;59.44;100335.59;2104045;28;20454;-56
2023/03/30 01:49:54;;;;;;;;;;;;;;;16.12;59.52;100334.81;2105251;28;20027;-57
2023/03/30 01:50:59;;;;;;;;;;;;;;;16.12;59.40;100334.81;2106157;28;19928;-56
2023/03/30 01:52:05;;;;;;;;;;;;;;;16.12;59.30;100330.16;2104596;28;19928;-54
2023/03/30 01:53:10;;;;;;;;;;;;;;;16.12;59.38;100343.78;2116507;28;19949;-57
2023/03/30 01:54:16;;;;;;;;;;;;;;;16.12;59.36;100338.31;2114619;28;20068;-57
2023/03/30 01:55:22;;;;;;;;;;;;;;;16.12;59.50;100338.31;2115983;28;19928;-56
2023/03/30 01:56:27;;;;;;;;;;;;;;;16.12;59.54;100329.38;2093988;28;20451;-57
2023/03/30 01:57:34;;;;;;;;;;;;;;;16.12;59.44;100338.31;2091647;28;19928;-56
2023/03/30 01:58:39;;;;;;;;;;;;;;;16.12;59.57;100335.59;2104651;28;19928;-59
2023/03/30 01:59:43;;;;;;;;;;;;;;;16.12;59.48;100334.81;2116975;28;20456;-57
2023/03/30 02:00:49;;;;;;;;;;;;;;;16.12;59.52;100329.38;2102678;28;19928;-54
2023/03/30 02:01:52;;;;;;;;;;;;;;;16.11;59.31;100323.13;2106391;28;20830;-56
2023/03/30 02:02:57;;;;;;;;;;;;;;;16.12;59.47;100326.66;2106951;28;20307;-57
2023/03/30 02:04:01;;;;;;;;;;;;;;;16.12;59.30;100324.72;2111380;28;19928;-57
2023/03/30 02:05:05;;;;;;;;;;;;;;;16.13;59.41;100325.47;2099058;28;19924;-56
2023/03/30 02:06:10;;;;;;;;;;;;;;;16.12;59.65;100319.25;2095139;28;19928;-57
2023/03/30 02:07:14;;;;;;;;;;;;;;;16.12;59.40;100324.72;2104279;28;20023;-57
2023/03/30 02:08:19;;;;;;;;;;;;;;;16.12;59.37;100323.91;2112745;28;20386;-56
2023/03/30 02:09:22;;;;;;;;;;;;;;;16.13;59.45;100320.03;2098091;28;19929;-57
2023/03/30 02:10:32;;;;;;;;;;;;;;;16.13;59.45;100322.75;2103883;28;19928;-54
2023/03/30 02:11:35;;;;;;;;;;;;;;;16.12;59.44;100316.53;2111502;28;19924;-57
2023/03/30 02:12:40;;;;;;;;;;;;;;;16.13;59.29;100320.81;2104284;28;19950;-57
2023/03/30 02:13:43;;;;;;;;;;;;;;;16.12;59.45;100315.75;2094881;28;19963;-57
2023/03/30 02:14:48;;;;;;;;;;;;;;;16.12;59.35;100321.97;2102939;28;19976;-55
2023/03/30 02:15:52;;;;;;;;;;;;;;;16.12;59.31;100319.25;2106027;28;19935;-56
2023/03/30 02:16:59;;;;;;;;;;;;;;;16.13;59.29;100317.28;2113425;28;19939;-55
2023/03/30 02:18:01;;;;;;;;;;;;;;;16.12;59.45;100321.97;2106660;28;19935;-55
2023/03/30 02:19:05;;;;;;;;;;;;;;;16.13;59.53;100309.13;2101367;28;19924;-56
2023/03/30 02:20:08;;;;;;;;;;;;;;;16.13;59.45;100317.28;2105964;27;20383;-56
2023/03/30 02:21:11;;;;;;;;;;;;;;;16.13;59.52;100309.91;2113444;28;19927;-56
2023/03/30 02:22:14;;;;;;;;;;;;;;;16.13;59.45;100314.56;2114926;27;20338;-57
2023/03/30 02:23:18;;;;;;;;;;;;;;;16.13;59.54;100315.34;2109604;28;19928;-57
2023/03/30 02:24:22;;;;;;;;;;;;;;;16.12;59.30;100313.81;2113842;28;20681;-55
2023/03/30 02:25:26;;;;;;;;;;;;;;;16.13;59.40;100307.19;2103758;28;20022;-57
2023/03/30 02:26:30;;;;;;;;;;;;;;;16.12;59.41;100300.19;2096580;28;19931;-56
2023/03/30 02:27:33;;;;;;;;;;;;;;;16.12;59.48;100299.41;2112135;28;19927;-56
2023/03/30 02:28:35;;;;;;;;;;;;;;;16.13;59.29;100303.69;2115275;27;19934;-56
2023/03/30 02:29:40;;;;;;;;;;;;;;;16.13;59.34;100304.47;2101970;28;19928;-56
2023/03/30 02:30:43;;;;;;;;;;;;;;;16.12;59.60;100302.91;2090841;28;20363;-57
2023/03/30 02:31:47;;;;;;;;;;;;;;;16.12;59.47;100302.91;2100155;28;20358;-61
2023/03/30 02:32:52;;;;;;;;;;;;;;;16.12;59.55;100302.91;2104503;28;20018;-55
2023/03/30 02:34:05;;;;;;;;;;;;;;;16.12;59.53;100297.47;2110873;28;20376;-58
2023/03/30 02:35:22;;;;;;;;;;;;;;;16.13;59.20;100304.47;2104834;28;19935;-56
2023/03/30 02:36:36;;;;;;;;;;;;;;;16.12;59.30;100308.38;2103779;27;19940;-57
2023/03/30 02:37:43;;;;;;;;;;;;;;;16.14;59.49;100310.69;2104110;28;20304;-57
2023/03/30 02:38:58;;;;;;;;;;;;;;;16.13;59.49;100314.56;2106736;28;20572;-56
2023/03/30 02:40:11;;;;;;;;;;;;;;;16.13;59.39;100309.13;2100357;28;19928;-56
2023/03/30 02:41:20;;;;;;;;;;;;;;;16.13;59.31;100314.56;2095664;28;20866;-57
2023/03/30 02:42:36;;;;;;;;;;;;;;;16.13;59.49;100306.41;2101072;28;19924;-56
2023/03/30 02:43:45;;;;;;;;;;;;;;;16.13;59.58;100303.69;2100553;28;19931;-56
2023/03/30 02:44:53;;;;;;;;;;;;;;;16.13;59.15;100300.94;2096367;28;19928;-57
2023/03/30 02:46:02;;;;;;;;;;;;;;;16.12;59.44;100308.38;2099748;28;19936;-56
2023/03/30 02:47:05;;;;;;;;;;;;;;;16.12;59.12;100310.31;2113951;27;19974;-54
2023/03/30 02:48:15;;;;;;;;;;;;;;;16.12;59.25;100311.09;2110329;28;20268;-57
2023/03/30 02:49:22;;;;;;;;;;;;;;;16.13;59.50;100306.41;2096403;28;19983;-57
2023/03/30 02:50:33;;;;;;;;;;;;;;;16.14;59.18;100306.00;2096060;28;19932;-57
2023/03/30 02:51:43;;;;;;;;;;;;;;;16.13;59.23;100304.47;2103861;28;20005;-54
2023/03/30 02:53:05;;;;;;;;;;;;;;;16.13;59.29;100307.19;2106071;28;19928;-57
2023/03/30 02:54:14;;;;;;;;;;;;;;;16.13;59.48;100301.75;2096670;28;19928;-57
2023/03/30 02:55:40;;;;;;;;;;;;;;;16.13;59.42;100301.75;2070906;28;19925;-57
2023/03/30 02:57:02;;;;;;;;;;;;;;;16.13;59.40;100309.91;2112157;28;20411;-57
2023/03/30 02:58:06;;;;;;;;;;;;;;;16.13;59.41;100298.22;2111533;28;20398;-56
2023/03/30 02:59:11;;;;;;;;;;;;;;;16.12;59.36;100308.38;2107857;27;19928;-56
2023/03/30 03:00:17;;;;;;;;;;;;;;;16.13;59.13;100309.91;2104775;28;19964;-55
2023/03/30 03:01:23;;;;;;;;;;;;;;;16.13;59.34;100311.84;2095426;28;19928;-55
2023/03/30 03:02:36;;;;;;;;;;;;;;;16.12;59.21;100311.09;2100012;27;19935;-56
2023/03/30 03:03:53;;;;;;;;;;;;;;;16.13;58.96;100298.22;2110758;28;20013;-56
2023/03/30 03:04:55;;;;;;;;;;;;;;;16.14;59.28;100297.09;2097436;28;19940;-62
2023/03/30 03:06:13;;;;;;;;;;;;;;;16.14;59.37;100308.72;2099476;28;20017;-57
2023/03/30 03:07:19;;;;;;;;;;;;;;;16.13;59.09;100299.00;2099740;28;19949;-56
2023/03/30 03:08:23;;;;;;;;;;;;;;;16.13;59.20;100301.75;2096307;28;19925;-58
2023/03/30 03:09:25;;;;;;;;;;;;;;;16.13;59.42;100304.47;2094739;28;19940;-54
2023/03/30 03:10:28;;;;;;;;;;;;;;;16.13;59.15;100301.75;2090157;28;19948;-57
2023/03/30 03:11:30;;;;;;;;;;;;;;;16.13;59.24;100296.28;2104602;28;19985;-56
2023/03/30 03:12:33;;;;;;;;;;;;;;;16.13;59.13;100299.00;2099615;28;19924;-57
2023/03/30 03:13:37;;;;;;;;;;;;;;;16.14;59.18;100305.25;2095768;28;20454;-58
2023/03/30 03:14:40;;;;;;;;;;;;;;;16.13;59.13;100307.19;2093287;28;20038;-58
2023/03/30 03:15:44;;;;;;;;;;;;;;;16.14;59.30;100307.97;2102282;28;19953;-57
2023/03/30 03:16:46;;;;;;;;;;;;;;;16.14;59.18;100307.97;2096152;28;19932;-57
2023/03/30 03:17:50;;;;;;;;;;;;;;;16.14;59.20;100302.53;2102865;28;19928;-57
2023/03/30 03:18:52;;;;;;;;;;;;;;;16.13;59.10;100309.13;2101840;28;20371;-58
2023/03/30 03:19:55;;;;;;;;;;;;;;;16.13;59.34;100301.75;2094925;28;19935;-57
2023/03/30 03:20:57;;;;;;;;;;;;;;;16.13;59.15;100293.56;2101430;28;19962;-57
2023/03/30 03:21:59;;;;;;;;;;;;;;;16.14;59.12;100291.63;2099912;27;19965;-57
2023/03/30 03:23:04;;;;;;;;;;;;;;;16.14;59.37;100284.22;2113130;28;19934;-56
2023/03/30 03:24:16;;;;;;;;;;;;;;;16.13;59.46;100293.56;2102641;28;19931;-57
2023/03/30 03:25:45;;;;;;;;;;;;;;;16.13;59.16;100281.88;2073757;28;19937;-56
2023/03/30 03:26:48;;;;;;;;;;;;;;;16.14;59.31;100283.47;2097810;28;20302;-57
2023/03/30 03:27:51;;;;;;;;;;;;;;;16.13;59.21;100279.94;2097357;28;19940;-59
2023/03/30 03:28:56;;;;;;;;;;;;;;;16.13;59.07;100282.69;2101064;28;19963;-57
2023/03/30 03:30:00;;;;;;;;;;;;;;;16.13;59.00;100281.88;2108519;28;20414;-57
2023/03/30 03:31:02;;;;;;;;;;;;;;;16.13;59.34;100274.50;2112582;28;19924;-56
2023/03/30 03:32:05;;;;;;;;;;;;;;;16.13;59.07;100266.34;2100381;28;19932;-55
2023/03/30 03:33:13;;;;;;;;;;;;;;;16.13;59.00;100282.69;2096655;28;19929;-56
2023/03/30 03:34:20;;;;;;;;;;;;;;;16.15;59.22;100279.56;2101326;28;19929;-56
2023/03/30 03:35:31;;;;;;;;;;;;;;;16.13;59.03;100284.63;2104595;28;19927;-55
2023/03/30 03:36:38;;;;;;;;;;;;;;;16.13;59.11;100293.56;2103094;28;19935;-57
2023/03/30 03:37:40;;;;;;;;;;;;;;;16.13;59.18;100273.72;2098782;28;20290;-57
2023/03/30 03:38:42;;;;;;;;;;;;;;;16.14;59.28;100292.38;2115227;27;19931;-55
2023/03/30 03:39:44;;;;;;;;;;;;;;;16.14;59.24;100289.66;2117300;27;19973;-57
2023/03/30 03:40:49;;;;;;;;;;;;;;;16.14;59.09;100286.19;2104099;28;19931;-56
2023/03/30 03:41:51;;;;;;;;;;;;;;;16.13;59.03;100279.94;2104774;28;20444;-57
2023/03/30 03:42:54;;;;;;;;;;;;;;;16.14;59.18;100283.47;2103545;28;20457;-57
2023/03/30 03:43:56;;;;;;;;;;;;;;;16.14;59.07;100284.22;2101771;28;19964;-56
2023/03/30 03:45:00;;;;;;;;;;;;;;;16.14;58.99;100284.22;2111802;28;19927;-57
2023/03/30 03:46:02;;;;;;;;;;;;;;;16.14;59.02;100278.78;2098281;28;19924;-57
2023/03/30 03:47:05;;;;;;;;;;;;;;;16.14;59.23;100284.22;2095898;28;19929;-56
2023/03/30 03:48:07;;;;;;;;;;;;;;;16.14;59.27;100283.47;2098609;28;19928;-57
2023/03/30 03:49:20;;;;;;;;;;;;;;;16.15;59.13;100280.34;2107370;28;20448;-56
2023/03/30 03:50:22;;;;;;;;;;;;;;;16.13;59.19;100288.13;2113010;27;19935;-56
2023/03/30 03:51:25;;;;;;;;;;;;;;;16.13;59.30;100282.69;2118514;27;19923;-57
2023/03/30 03:52:27;;;;;;;;;;;;;;;16.15;59.20;100279.56;2115258;27;20406;-55
2023/03/30 03:53:30;;;;;;;;;;;;;;;16.13;59.11;100285.41;2103587;28;19977;-57
2023/03/30 03:54:35;;;;;;;;;;;;;;;16.13;59.19;100285.41;2099898;28;20000;-56
2023/03/30 03:55:38;;;;;;;;;;;;;;;16.14;59.13;100283.47;2109005;28;19971;-57
2023/03/30 03:56:39;;;;;;;;;;;;;;;16.14;58.95;100289.66;2104262;28;19927;-56
2023/03/30 03:57:43;;;;;;;;;;;;;;;16.14;59.27;100292.38;2110200;28;20410;-57
2023/03/30 03:58:45;;;;;;;;;;;;;;;16.14;59.16;100284.22;2109868;27;20391;-57
2023/03/30 03:59:50;;;;;;;;;;;;;;;16.13;59.00;100284.63;2112626;28;19928;-57
2023/03/30 04:00:56;;;;;;;;;;;;;;;16.14;59.04;100284.22;2103593;28;19969;-57
2023/03/30 04:01:58;;;;;;;;;;;;;;;16.13;59.10;100277.22;2105395;27;19927;-57
2023/03/30 04:03:03;;;;;;;;;;;;;;;16.14;59.01;100278.78;2121247;27;19974;-54
2023/03/30 04:04:06;;;;;;;;;;;;;;;16.14;59.03;100280.75;2118183;27;19969;-55
2023/03/30 04:05:08;;;;;;;;;;;;;;;16.12;58.89;100281.13;2106287;28;20391;-57
2023/03/30 04:06:11;;;;;;;;;;;;;;;16.13;59.18;100279.94;2108031;28;20035;-56
2023/03/30 04:07:13;;;;;;;;;;;;;;;16.14;59.28;100276.06;2109665;28;19931;-54
2023/03/30 04:08:16;;;;;;;;;;;;;;;16.14;58.89;100270.59;2105915;28;19928;-57
2023/03/30 04:09:20;;;;;;;;;;;;;;;16.14;59.09;100265.16;2104753;28;19994;-57
2023/03/30 04:10:41;;;;;;;;;;;;;;;16.14;59.16;100270.59;2110279;28;19928;-56
2023/03/30 04:11:53;;;;;;;;;;;;;;;16.14;58.92;100262.44;2100852;28;19934;-56
2023/03/30 04:13:18;;;;;;;;;;;;;;;16.14;59.07;100273.31;2079907;28;20425;-56
2023/03/30 04:14:20;;;;;;;;;;;;;;;16.14;58.92;100272.56;2110604;27;19950;-57
2023/03/30 04:15:42;;;;;;;;;;;;;;;16.13;59.25;100271.78;2098821;28;19995;-57
2023/03/30 04:16:58;;;;;;;;;;;;;;;16.14;59.12;100278.78;2107719;27;19935;-57
2023/03/30 04:18:32;;;;;;;;;;;;;;;16.13;59.21;100269.06;2097371;28;19923;-57
2023/03/30 04:19:57;;;;;;;;;;;;;;;16.14;59.07;100257.00;2083669;28;19928;-57
2023/03/30 04:21:16;;;;;;;;;;;;;;;16.14;58.96;100261.69;2097391;28;19929;-56
2023/03/30 04:22:25;;;;;;;;;;;;;;;16.13;58.90;100260.88;2104975;28;19928;-58
2023/03/30 04:23:38;;;;;;;;;;;;;;;16.13;58.97;100260.88;2111931;28;20326;-57
2023/03/30 04:25:14;;;;;;;;;;;;;;;16.14;58.97;100259.72;2118433;27;19935;-57
2023/03/30 04:26:32;;;;;;;;;;;;;;;16.14;58.94;100256.22;2112851;27;19927;-57
2023/03/30 04:27:57;;;;;;;;;;;;;;;16.14;58.91;100254.25;2104833;27;20429;-58
2023/03/30 04:29:19;;;;;;;;;;;;;;;16.14;59.18;100251.53;2110830;27;20031;-57
2023/03/30 04:30:39;;;;;;;;;;;;;;;16.14;59.10;100251.53;2104755;28;19932;-57
2023/03/30 04:32:03;;;;;;;;;;;;;;;16.14;59.19;100250.78;2112374;28;19935;-57
2023/03/30 04:33:20;;;;;;;;;;;;;;;16.13;58.98;100249.22;2114166;27;20336;-57
2023/03/30 04:34:41;;;;;;;;;;;;;;;16.13;59.19;100252.72;2100840;28;20035;-57
2023/03/30 04:36:05;;;;;;;;;;;;;;;16.14;59.03;100256.22;2107247;28;20167;-57
2023/03/30 04:37:40;;;;;;;;;;;;;;;16.14;59.00;100248.81;2096154;28;20015;-56
2023/03/30 04:38:58;;;;;;;;;;;;;;;16.14;59.18;100254.25;2106050;28;19960;-57
2023/03/30 04:40:19;;;;;;;;;;;;;;;16.14;58.91;100250.78;2116331;27;19935;-56
2023/03/30 04:41:53;;;;;;;;;;;;;;;16.13;59.09;100247.28;2110575;28;20376;-57
2023/03/30 04:43:22;;;;;;;;;;;;;;;16.13;59.03;100249.22;2072684;28;19933;-56
2023/03/30 04:44:30;;;;;;;;;;;;;;;16.12;58.95;100245.72;2113627;27;19932;-56
2023/03/30 04:45:52;;;;;;;;;;;;;;;16.13;58.92;100250.00;2109095;28;20315;-55
2023/03/30 04:47:14;;;;;;;;;;;;;;;16.14;59.12;100240.66;2116548;27;19953;-57
2023/03/30 04:48:40;;;;;;;;;;;;;;;16.13;58.76;100244.56;2072036;28;19929;-56
2023/03/30 04:50:15;;;;;;;;;;;;;;;16.13;58.82;100236.38;2080856;28;19928;-57
2023/03/30 04:51:36;;;;;;;;;;;;;;;16.14;59.10;100237.91;2112658;27;19935;-57
2023/03/30 04:52:46;;;;;;;;;;;;;;;16.13;59.17;100250.00;2106188;28;20455;-58
2023/03/30 04:54:07;;;;;;;;;;;;;;;16.13;58.98;100244.56;2103566;28;19989;-57
2023/03/30 04:55:42;;;;;;;;;;;;;;;16.13;59.01;100241.81;2074793;28;20416;-58
2023/03/30 04:57:06;;;;;;;;;;;;;;;16.13;59.13;100243.75;2109047;28;20287;-57
2023/03/30 04:58:17;;;;;;;;;;;;;;;16.13;59.02;100239.09;2105139;28;19977;-57
2023/03/30 04:59:36;;;;;;;;;;;;;;;16.14;59.06;100246.09;2096713;28;19979;-56
2023/03/30 05:01:04;;;;;;;;;;;;;;;16.14;59.12;100246.09;2107938;28;19928;-57
2023/03/30 05:02:26;;;;;;;;;;;;;;;16.13;59.04;100241.81;2112345;28;19957;-57
2023/03/30 05:03:49;;;;;;;;;;;;;;;16.14;58.86;100246.09;2102181;28;20458;-57
2023/03/30 05:05:10;;;;;;;;;;;;;;;16.14;58.96;100240.66;2096552;28;19973;-56
2023/03/30 05:06:28;;;;;;;;;;;;;;;16.13;59.03;100246.47;2089881;28;19929;-56
2023/03/30 05:08:03;;;;;;;;;;;;;;;16.13;59.07;100247.28;2073444;28;19963;-57
2023/03/30 05:09:44;;;;;;;;;;;;;;;16.13;58.93;100239.09;2082270;28;20024;-57
2023/03/30 05:11:06;;;;;;;;;;;;;;;16.14;58.89;100246.09;2086638;28;19995;-56
2023/03/30 05:12:20;;;;;;;;;;;;;;;16.14;58.91;100250.78;2078168;28;19929;-55
2023/03/30 05:13:50;;;;;;;;;;;;;;;16.13;58.86;100241.81;2054882;28;19934;-55
2023/03/30 05:15:22;;;;;;;;;;;;;;;16.15;59.01;100252.31;2065196;28;19996;-56
2023/03/30 05:16:44;;;;;;;;;;;;;;;16.14;58.68;100248.06;2085002;28;19929;-57
2023/03/30 05:17:53;;;;;;;;;;;;;;;16.14;58.89;100246.09;2114099;28;19967;-57
2023/03/30 05:19:29;;;;;;;;;;;;;;;16.14;58.95;100246.09;2083993;28;20003;-57
2023/03/30 05:20:55;;;;;;;;;;;;;;;16.14;58.77;100248.81;2115650;28;19966;-57
2023/03/30 05:22:07;;;;;;;;;;;;;;;16.15;59.12;100246.88;2117807;28;19927;-57
2023/03/30 05:23:27;;;;;;;;;;;;;;;16.14;58.79;100240.66;2113125;28;20451;-57
2023/03/30 05:24:48;;;;;;;;;;;;;;;16.13;58.79;100239.09;2108253;28;20443;-57
2023/03/30 05:26:00;;;;;;;;;;;;;;;16.15;58.92;100241.44;2112978;28;20746;-56
2023/03/30 05:27:20;;;;;;;;;;;;;;;16.14;58.80;100245.34;2104219;28;19928;-54
2023/03/30 05:28:25;;;;;;;;;;;;;;;16.14;58.92;100239.88;2107159;28;19953;-57
2023/03/30 05:29:46;;;;;;;;;;;;;;;16.14;58.88;100243.38;2113302;28;19934;-57
2023/03/30 05:31:07;;;;;;;;;;;;;;;16.14;58.90;100246.09;2112760;28;19984;-56
2023/03/30 05:32:21;;;;;;;;;;;;;;;16.14;59.02;100239.88;2114514;28;20013;-57
2023/03/30 05:33:50;;;;;;;;;;;;;;;16.15;58.97;100244.16;2078008;28;19972;-57
2023/03/30 05:35:10;;;;;;;;;;;;;;;16.14;59.04;100251.53;2111632;28;19924;-56
2023/03/30 05:36:34;;;;;;;;;;;;;;;16.14;59.01;100246.09;2097026;28;19935;-56
2023/03/30 05:37:41;;;;;;;;;;;;;;;16.14;58.91;100243.38;2111172;28;19959;-56
2023/03/30 05:38:59;;;;;;;;;;;;;;;16.13;58.97;100241.81;2112542;28;20395;-57
2023/03/30 05:40:24;;;;;;;;;;;;;;;16.15;58.95;100242.22;2102527;28;19928;-56
2023/03/30 05:41:53;;;;;;;;;;;;;;;16.14;58.75;100246.09;2099562;28;19977;-57
2023/03/30 05:43:16;;;;;;;;;;;;;;;16.13;58.99;100239.09;2116851;28;19934;-56
2023/03/30 05:44:37;;;;;;;;;;;;;;;16.13;58.87;100241.81;2114844;28;19927;-57
2023/03/30 05:45:58;;;;;;;;;;;;;;;16.15;58.97;100246.88;2111669;28;20031;-57
2023/03/30 05:47:08;;;;;;;;;;;;;;;16.14;58.89;100248.81;2103671;28;19939;-57
2023/03/30 05:48:31;;;;;;;;;;;;;;;16.14;58.78;100243.38;2089622;28;19929;-56
2023/03/30 05:49:56;;;;;;;;;;;;;;;16.14;59.01;100246.09;2113243;28;20011;-56
2023/03/30 05:51:10;;;;;;;;;;;;;;;16.14;58.56;100250.78;2112905;28;19930;-56
2023/03/30 05:52:26;;;;;;;;;;;;;;;16.14;59.01;100248.81;2094793;28;19928;-57
2023/03/30 05:53:55;;;;;;;;;;;;;;;16.14;58.81;100250.78;2099575;28;19928;-55
2023/03/30 05:55:22;;;;;;;;;;;;;;;16.15;58.70;100247.66;2095261;28;20383;-56
2023/03/30 05:56:43;;;;;;;;;;;;;;;16.15;58.69;100252.31;2109866;28;19927;-55
2023/03/30 05:57:53;;;;;;;;;;;;;;;16.14;58.89;100248.81;2097184;28;19978;-56
2023/03/30 05:59:04;;;;;;;;;;;;;;;16.15;58.69;100263.22;2095559;28;19932;-56